Time;durP1;ratioP1;P1;durP2;ratioP2;P2;SDS_P1;SDS_P2;PMS_P1;PMS_P2;Temp;Humidity;BMP_temperature;BMP_pressure;BME280_temperature;BME280_humidity;BME280_pressure;Samples;Min_cycle;Max_cycle;Signal;HPM_P1;HPM_P2
2022/02/25 00:05:10;;;;;;;0.20;0.10;;;11.00;99.90;;;;;;25438251;23;20191;-63
2022/02/25 00:15:16;;;;;;;1.07;1.07;;;10.90;99.90;;;;;;25438965;23;20164;-63
2022/02/25 00:25:20;;;;;;;0.20;0.10;;;11.20;99.90;;;;;;25442165;23;20187;-63
2022/02/25 00:35:25;;;;;;;0.20;0.10;;;11.30;99.90;;;;;;25441518;23;20184;-63
2022/02/25 00:45:29;;;;;;;0.20;0.10;;;11.30;99.90;;;;;;25441430;23;20187;-77
2022/02/25 00:55:34;;;;;;;0.20;0.00;;;11.20;99.90;;;;;;25416407;23;20195;-81
2022/02/25 01:05:38;;;;;;;0.20;0.10;;;11.10;99.90;;;;;;25441088;23;20194;-79
2022/02/25 01:15:43;;;;;;;0.20;0.10;;;11.00;99.90;;;;;;25415220;23;20172;-79
2022/02/25 01:25:47;;;;;;;0.20;0.10;;;10.90;99.90;;;;;;25441174;23;20192;-77
2022/02/25 01:35:52;;;;;;;0.20;0.10;;;10.80;99.90;;;;;;25440387;23;20179;-79
2022/02/25 01:45:56;;;;;;;0.20;0.00;;;10.70;99.90;;;;;;25439585;23;20168;-77
2022/02/25 01:56:01;;;;;;;0.20;0.10;;;10.60;99.90;;;;;;25434922;23;20207;-79
2022/02/25 02:06:07;;;;;;;0.20;0.07;;;10.40;99.90;;;;;;25434408;23;20191;-77
2022/02/25 02:16:12;;;;;;;0.20;0.00;;;10.20;99.90;;;;;;25436357;23;20160;-64
2022/02/25 02:26:18;;;;;;;0.20;0.10;;;10.00;99.90;;;;;;25437689;23;20187;-64
2022/02/25 02:36:21;;;;;;;0.20;0.10;;;9.60;99.90;;;;;;25436784;23;20187;-62
2022/02/25 02:46:27;;;;;;;0.20;0.00;;;9.60;99.90;;;;;;25437470;23;20202;-63
2022/02/25 02:56:30;;;;;;;0.20;0.00;;;9.80;99.90;;;;;;25437093;23;20192;-84
2022/02/25 03:06:35;;;;;;;0.20;0.10;;;9.60;99.90;;;;;;25435452;23;20226;-82
2022/02/25 03:16:39;;;;;;;1.23;1.23;;;9.90;99.90;;;;;;25436609;23;20172;-80
2022/02/25 03:26:45;;;;;;;0.20;0.00;;;10.00;99.90;;;;;;25436104;23;20211;-80
2022/02/25 03:36:50;;;;;;;0.20;0.00;;;10.40;99.90;;;;;;25435249;23;20188;-65
2022/02/25 03:46:55;;;;;;;0.20;0.20;;;10.30;99.90;;;;;;25435345;23;20171;-66
2022/02/25 03:56:59;;;;;;;0.20;0.10;;;10.40;99.90;;;;;;25434685;23;20195;-65
2022/02/25 04:07:05;;;;;;;0.20;0.00;;;10.50;99.90;;;;;;25410005;23;20175;-69
2022/02/25 04:17:09;;;;;;;0.20;0.00;;;10.50;99.90;;;;;;25434838;23;20201;-69
2022/02/25 04:27:14;;;;;;;0.20;0.10;;;10.40;99.90;;;;;;25441532;23;20168;-69
2022/02/25 04:37:18;;;;;;;0.20;0.00;;;10.50;99.90;;;;;;25441715;23;20191;-69
2022/02/25 04:47:23;;;;;;;0.20;0.10;;;10.30;99.90;;;;;;25441524;23;20216;-68
2022/02/25 04:57:27;;;;;;;0.20;0.10;;;10.40;99.90;;;;;;25437216;23;20188;-69
2022/02/25 05:07:36;;;;;;;0.20;0.07;;;10.40;99.90;;;;;;25412094;23;20179;-69
2022/02/25 05:28:02;;;;;;;0.20;0.00;;;10.40;99.90;;;;;;25436948;23;20160;-63
2022/02/25 05:38:06;;;;;;;0.20;0.10;;;10.30;99.90;;;;;;25435456;23;20210;-63
2022/02/25 05:48:11;;;;;;;0.20;0.00;;;10.50;99.90;;;;;;25435392;23;20202;-62
2022/02/25 05:58:15;;;;;;;0.20;0.00;;;10.50;99.90;;;;;;25436269;23;20191;-75
2022/02/25 06:08:20;;;;;;;0.20;0.10;;;10.70;99.90;;;;;;25407513;23;20171;-77
2022/02/25 06:18:23;;;;;;;0.20;0.10;;;10.60;99.90;;;;;;25431041;23;20188;-76
2022/02/25 06:28:31;;;;;;;0.20;0.10;;;10.40;99.90;;;;;;25431524;23;20578;-75
2022/02/25 06:38:34;;;;;;;0.20;0.10;;;10.60;99.90;;;;;;25428781;23;20199;-64
2022/02/25 06:48:40;;;;;;;0.20;0.10;;;10.70;99.90;;;;;;25426620;23;20211;-63
2022/02/25 06:58:44;;;;;;;0.20;0.03;;;10.80;99.90;;;;;;25422239;23;20260;-66
2022/02/25 07:08:52;;;;;;;0.20;0.10;;;10.80;99.90;;;;;;25391420;23;20235;-67
2022/02/25 07:18:55;;;;;;;0.20;0.10;;;11.00;99.90;;;;;;25422451;23;20191;-65
2022/02/25 07:29:00;;;;;;;0.20;0.10;;;10.90;99.90;;;;;;25426743;23;20172;-68
2022/02/25 07:39:04;;;;;;;6.43;6.13;;;11.00;99.90;;;;;;25425154;23;20195;-68
2022/02/25 07:49:10;;;;;;;0.20;0.10;;;11.30;99.90;;;;;;25422957;23;20796;-70
2022/02/25 07:59:14;;;;;;;0.20;0.10;;;11.50;99.90;;;;;;25428200;23;20672;-68
2022/02/25 08:09:23;;;;;;;0.20;0.10;;;11.70;99.90;;;;;;25431692;23;20156;-70
2022/02/25 08:19:27;;;;;;;0.20;0.10;;;11.90;99.90;;;;;;25405922;23;20199;-68
2022/02/25 08:29:32;;;;;;;0.20;0.10;;;12.00;99.90;;;;;;25433597;23;20175;-64
2022/02/25 08:39:36;;;;;;;0.20;0.10;;;12.20;99.90;;;;;;25434042;23;20304;-67
2022/02/25 08:49:42;;;;;;;0.20;0.10;;;12.50;99.90;;;;;;25406249;23;20203;-69
2022/02/25 08:59:46;;;;;;;0.20;0.10;;;12.60;99.90;;;;;;25430027;23;20203;-68
2022/02/25 09:09:51;;;;;;;0.20;0.10;;;12.70;99.90;;;;;;25428965;23;20179;-69
2022/02/25 09:19:54;;;;;;;0.20;0.10;;;12.90;99.90;;;;;;25405902;23;20200;-70
2022/02/25 09:30:00;;;;;;;0.20;0.10;;;13.20;99.90;;;;;;25429350;23;20192;-69
2022/02/25 09:40:07;;;;;;;0.20;0.10;;;13.20;99.90;;;;;;25404869;23;20188;-70
2022/02/25 09:50:14;;;;;;;0.20;0.20;;;13.10;99.90;;;;;;25430696;23;20199;-68
2022/02/25 10:00:18;;;;;;;0.20;0.03;;;13.40;99.90;;;;;;25427678;23;20266;-67
2022/02/25 10:10:29;;;;;;;0.20;0.10;;;13.90;99.90;;;;;;25427198;23;20183;-68
2022/02/25 10:20:34;;;;;;;0.20;0.10;;;14.20;99.90;;;;;;25396807;23;20191;-70
2022/02/25 10:30:52;;;;;;;0.20;0.10;;;14.70;99.90;;;;;;25404338;23;20192;-65
2022/02/25 10:41:00;;;;;;;0.20;0.00;;;15.20;99.90;;;;;;25430614;23;20232;-63
2022/02/25 10:51:07;;;;;;;0.20;0.13;;;15.60;99.90;;;;;;25422459;23;20243;-69
2022/02/25 11:01:12;;;;;;;0.20;0.10;;;16.30;99.90;;;;;;25402596;23;20191;-63
2022/02/25 11:11:20;;;;;;;0.20;0.10;;;16.60;99.90;;;;;;25427062;23;20202;-64
2022/02/25 11:21:25;;;;;;;0.20;0.10;;;16.40;99.90;;;;;;25429098;23;20196;-64
2022/02/25 11:31:35;;;;;;;0.20;0.10;;;17.70;99.90;;;;;;25426803;23;20215;-64
2022/02/25 11:41:49;;;;;;;0.20;0.10;;;16.60;99.90;;;;;;25427354;23;20201;-64
2022/02/25 11:52:06;;;;;;;0.20;0.10;;;16.30;99.90;;;;;;25427052;23;20209;-66
2022/02/25 12:02:12;;;;;;;0.20;0.07;;;16.30;99.90;;;;;;25428269;23;20187;-67
2022/02/25 12:12:37;;;;;;;0.20;0.00;;;16.30;99.90;;;;;;25427896;23;20357;-65
2022/02/25 12:23:00;;;;;;;0.77;0.77;;;16.20;99.90;;;;;;25427621;23;20624;-67
2022/02/25 12:33:29;;;;;;;0.20;0.10;;;16.70;99.90;;;;;;25422481;23;20211;-68
2022/02/25 12:43:33;;;;;;;0.20;0.10;;;18.50;99.90;;;;;;25392096;23;20191;-68
2022/02/25 12:53:50;;;;;;;0.20;0.10;;;19.00;99.90;;;;;;25424515;23;20195;-68
2022/02/25 13:04:04;;;;;;;0.20;0.00;;;18.80;99.90;;;;;;25432499;23;20232;-64
2022/02/25 13:14:17;;;;;;;0.20;0.00;;;17.80;99.90;;;;;;25435344;23;20163;-65
2022/02/25 13:24:21;;;;;;;0.20;0.10;;;17.10;99.90;;;;;;25434531;23;21055;-65
2022/02/25 13:34:27;;;;;;;0.53;0.53;;;17.70;99.90;;;;;;25435039;23;20194;-65
2022/02/25 13:44:35;;;;;;;0.20;0.10;;;17.70;99.90;;;;;;25432915;23;20191;-65
2022/02/25 13:54:42;;;;;;;0.20;0.10;;;17.20;99.90;;;;;;25431599;23;20191;-65
2022/02/25 14:04:58;;;;;;;0.20;0.10;;;16.60;99.90;;;;;;25408772;23;20659;-64
2022/02/25 14:15:11;;;;;;;0.20;0.10;;;16.50;99.90;;;;;;25428830;23;20171;-65
2022/02/25 14:25:21;;;;;;;0.20;0.10;;;16.20;99.90;;;;;;25429852;23;20183;-65
2022/02/25 14:35:28;;;;;;;0.20;0.07;;;16.80;99.90;;;;;;25430072;23;20199;-64
2022/02/25 14:45:35;;;;;;;0.20;0.10;;;17.40;99.90;;;;;;25430942;23;20195;-63
2022/02/25 14:55:41;;;;;;;0.20;0.10;;;17.20;99.90;;;;;;25430480;23;20191;-64
2022/02/25 15:05:45;;;;;;;0.20;0.10;;;17.20;99.90;;;;;;25404004;23;20203;-65
2022/02/25 15:15:50;;;;;;;0.20;0.00;;;16.70;99.90;;;;;;25429267;23;20163;-63
2022/02/25 15:25:54;;;;;;;0.20;0.10;;;16.50;99.90;;;;;;25427071;23;20254;-64
2022/02/25 15:35:59;;;;;;;0.53;0.53;;;16.30;99.90;;;;;;25426199;23;20187;-65
2022/02/25 15:46:03;;;;;;;0.20;0.00;;;16.30;99.90;;;;;;25424617;23;20273;-64
2022/02/25 15:56:08;;;;;;;0.20;0.07;;;16.20;99.90;;;;;;25425120;23;20211;-64
2022/02/25 16:06:12;;;;;;;0.20;0.10;;;15.50;99.90;;;;;;25423812;23;20431;-63
2022/02/25 16:16:18;;;;;;;0.20;0.00;;;15.60;99.90;;;;;;25401208;23;20761;-62
2022/02/25 16:26:22;;;;;;;0.20;0.03;;;15.30;99.90;;;;;;25433897;23;20380;-64
2022/02/25 16:36:27;;;;;;;0.20;0.00;;;14.90;99.90;;;;;;25430399;23;20392;-63
2022/02/25 16:46:31;;;;;;;0.20;0.00;;;14.80;99.90;;;;;;25431285;23;20187;-64
2022/02/25 16:56:36;;;;;;;0.20;0.10;;;14.70;99.90;;;;;;25431856;23;20192;-82
2022/02/25 17:06:40;;;;;;;0.20;0.00;;;14.60;99.90;;;;;;25443210;23;20190;-80
2022/02/25 17:16:46;;;;;;;0.20;0.00;;;14.40;99.90;;;;;;25444324;23;20168;-79
2022/02/25 17:26:50;;;;;;;0.20;0.10;;;14.20;99.90;;;;;;25396008;23;20274;-81
2022/02/25 17:36:55;;;;;;;0.20;0.00;;;14.20;99.90;;;;;;25443312;23;20187;-78
2022/02/25 17:46:59;;;;;;;0.20;0.00;;;14.20;99.90;;;;;;25442501;23;20199;-81
2022/02/25 17:57:05;;;;;;;0.20;0.10;;;14.20;99.90;;;;;;25438743;23;20206;-64
2022/02/25 18:07:09;;;;;;;0.20;0.10;;;14.00;99.90;;;;;;25440559;23;20217;-63
2022/02/25 18:17:14;;;;;;;0.20;0.10;;;14.00;99.90;;;;;;25440759;23;20179;-63
2022/02/25 18:27:18;;;;;;;0.20;0.10;;;14.00;99.90;;;;;;25438655;23;20223;-64
2022/02/25 18:37:23;;;;;;;0.20;0.10;;;13.90;99.90;;;;;;25414672;23;20633;-63
2022/02/25 18:47:29;;;;;;;0.20;0.00;;;13.90;99.90;;;;;;25438802;23;20183;-64
2022/02/25 18:57:34;;;;;;;0.20;0.00;;;13.90;99.90;;;;;;25291018;23;20169;-64
2022/02/25 19:07:38;;;;;;;0.20;0.10;;;13.90;99.90;;;;;;25314908;23;20184;-65
2022/02/25 19:17:44;;;;;;;0.20;0.00;;;13.80;99.90;;;;;;25316145;23;20168;-65
2022/02/25 19:27:48;;;;;;;0.20;0.00;;;13.80;99.90;;;;;;25313500;23;20192;-66
2022/02/25 19:37:55;;;;;;;0.20;0.07;;;13.80;99.90;;;;;;25314882;23;20338;-69
2022/02/25 19:47:59;;;;;;;0.20;0.00;;;13.70;99.90;;;;;;25298724;23;20222;-62
2022/02/25 19:58:04;;;;;;;0.20;0.10;;;13.70;99.90;;;;;;25445282;23;20183;-63
2022/02/25 20:08:08;;;;;;;0.20;0.10;;;13.60;99.90;;;;;;25444473;23;20281;-78
2022/02/25 20:18:13;;;;;;;0.20;0.00;;;13.70;99.90;;;;;;25444076;23;20228;-75
2022/02/25 20:28:17;;;;;;;0.20;0.10;;;13.60;99.90;;;;;;25444800;23;20183;-68
2022/02/25 20:38:27;;;;;;;0.20;0.10;;;13.40;99.90;;;;;;25443879;23;20187;-73
2022/02/25 20:48:30;;;;;;;0.20;0.00;;;13.60;99.90;;;;;;25445388;23;20195;-72
2022/02/25 20:58:37;;;;;;;0.20;0.03;;;13.60;99.90;;;;;;25445295;23;20163;-75
2022/02/25 21:08:40;;;;;;;0.20;0.00;;;13.30;99.90;;;;;;25443948;23;20191;-73
2022/02/25 21:18:46;;;;;;;0.20;0.10;;;13.40;99.90;;;;;;25445782;23;20182;-74
2022/02/25 21:28:49;;;;;;;0.20;0.00;;;13.30;99.90;;;;;;25422129;23;20206;-75
2022/02/25 21:38:55;;;;;;;0.20;0.00;;;13.30;99.90;;;;;;25422096;23;20183;-73
2022/02/25 21:48:59;;;;;;;0.20;0.10;;;13.20;99.90;;;;;;25445191;23;20207;-72
2022/02/25 21:59:05;;;;;;;0.20;0.10;;;13.30;99.90;;;;;;25447180;23;20188;-74
2022/02/25 22:09:08;;;;;;;0.20;0.10;;;13.10;99.90;;;;;;25446319;23;20183;-74
2022/02/25 22:19:14;;;;;;;0.20;0.00;;;13.20;99.90;;;;;;25443429;23;20190;-73
2022/02/25 22:29:17;;;;;;;0.20;0.10;;;13.20;99.90;;;;;;25441855;23;20198;-61
2022/02/25 22:39:23;;;;;;;0.20;0.00;;;13.10;99.90;;;;;;25444370;23;20167;-63
2022/02/25 22:49:26;;;;;;;0.20;0.00;;;12.90;99.90;;;;;;25443638;23;20218;-74
2022/02/25 22:59:35;;;;;;;0.20;0.10;;;12.90;99.90;;;;;;25444274;23;20163;-72
2022/02/25 23:09:39;;;;;;;0.20;0.10;;;12.80;99.90;;;;;;25444175;23;20195;-62
2022/02/25 23:19:44;;;;;;;0.20;0.10;;;12.80;99.90;;;;;;25442066;23;20179;-63
2022/02/25 23:29:48;;;;;;;0.20;0.10;;;12.80;99.90;;;;;;25416952;23;20210;-62
2022/02/25 23:39:53;;;;;;;0.20;0.00;;;12.70;99.90;;;;;;25441078;23;20159;-61
2022/02/25 23:49:57;;;;;;;0.20;0.10;;;12.80;99.90;;;;;;25440619;23;20211;-63
